createdAt,value
2019-05-15T00:01:08.522Z,4.10
2019-05-15T00:03:35.474Z,4.10
2019-05-15T00:06:03.133Z,4.20
2019-05-15T00:08:30.845Z,4.20
2019-05-15T00:10:58.802Z,4.20
2019-05-15T00:13:28.242Z,4.20
2019-05-15T00:15:55.977Z,4.20
2019-05-15T00:18:23.522Z,4.10
2019-05-15T00:20:51.075Z,4.10
2019-05-15T00:23:18.822Z,4.10
2019-05-15T00:25:48.595Z,4.10
2019-05-15T00:28:15.787Z,4.20
2019-05-15T00:30:43.376Z,4.10
2019-05-15T00:33:11.019Z,4.40
2019-05-15T00:35:39.378Z,4.20
2019-05-15T00:38:09.323Z,4.10
2019-05-15T00:40:39.159Z,4.20
2019-05-15T00:43:05.984Z,4.20
2019-05-15T00:45:33.532Z,4.20
2019-05-15T00:48:01.104Z,4.10
2019-05-15T00:50:28.781Z,4.20
2019-05-15T00:52:56.512Z,4.20
2019-05-15T00:55:24.057Z,4.20
2019-05-15T00:57:51.607Z,4.20
2019-05-15T01:00:38.133Z,4.10
2019-05-15T01:03:08.540Z,4.10
2019-05-15T01:05:35.542Z,4.10
2019-05-15T01:08:03.479Z,4.10
2019-05-15T01:10:31.036Z,4.10
2019-05-15T01:12:58.563Z,4.10
2019-05-15T01:15:26.246Z,4.10
2019-05-15T01:17:53.814Z,4.10
2019-05-15T01:20:21.384Z,4.10
2019-05-15T01:22:48.908Z,4.30
2019-05-15T01:25:18.553Z,4.10
2019-05-15T01:27:46.043Z,4.10
2019-05-15T01:30:14.224Z,4.10
2019-05-15T01:32:41.807Z,4.10
2019-05-15T01:35:09.800Z,4.10
2019-05-15T01:37:39.050Z,4.10
2019-05-15T01:40:09.049Z,4.00
2019-05-15T01:42:38.574Z,4.00
2019-05-15T01:45:08.383Z,3.90
2019-05-15T01:47:36.004Z,4.00
2019-05-15T01:50:03.596Z,4.00
2019-05-15T01:52:31.165Z,4.00
2019-05-15T01:54:58.744Z,4.00
2019-05-15T01:57:28.598Z,4.00
2019-05-15T02:00:00.282Z,4.10
2019-05-15T02:02:25.001Z,4.10
2019-05-15T02:04:52.721Z,4.10
2019-05-15T02:07:20.253Z,4.10
2019-05-15T02:09:49.172Z,4.10
2019-05-15T02:12:18.995Z,4.20
2019-05-15T02:14:48.520Z,4.20
2019-05-15T02:17:15.698Z,4.20
2019-05-15T02:19:43.272Z,4.30
2019-05-15T02:22:10.849Z,4.30
2019-05-15T02:24:39.017Z,4.40
2019-05-15T02:27:08.878Z,4.30
2019-05-15T02:29:37.806Z,4.40
2019-05-15T02:32:05.434Z,4.40
2019-05-15T02:34:33.034Z,4.40
2019-05-15T02:37:00.627Z,4.50
2019-05-15T02:39:29.114Z,4.50
2019-05-15T02:41:59.407Z,4.50
2019-05-15T02:44:28.922Z,4.50
2019-05-15T02:46:58.614Z,4.50
2019-05-15T02:49:24.978Z,4.60
2019-05-15T02:51:52.548Z,4.60
2019-05-15T02:54:20.116Z,4.70
2019-05-15T02:56:49.456Z,4.60
2019-05-15T02:59:19.448Z,4.70
2019-05-15T03:01:49.336Z,4.70
2019-05-15T03:04:15.952Z,4.70
2019-05-15T03:06:43.529Z,4.70
2019-05-15T03:09:11.083Z,4.80
2019-05-15T03:11:40.928Z,4.80
2019-05-15T03:14:09.308Z,4.80
2019-05-15T03:16:39.414Z,4.80
2019-05-15T03:19:09.695Z,4.90
2019-05-15T03:21:38.658Z,4.90
2019-05-15T03:24:05.348Z,4.90
2019-05-15T03:26:32.885Z,4.90
2019-05-15T03:29:00.458Z,4.90
2019-05-15T03:31:47.751Z,4.90
2019-05-15T03:34:02.400Z,4.90
2019-05-15T03:36:31.757Z,4.90
2019-05-15T03:38:58.553Z,4.90
2019-05-15T03:41:25.524Z,4.90
2019-05-15T03:43:53.089Z,4.90
2019-05-15T03:46:20.657Z,4.90
2019-05-15T03:48:48.803Z,4.80
2019-05-15T03:51:19.645Z,4.80
2019-05-15T03:53:49.463Z,4.80
2019-05-15T03:56:15.304Z,4.80
2019-05-15T03:58:42.916Z,4.90
2019-05-15T04:01:28.588Z,4.90
2019-05-15T04:03:39.864Z,4.90
2019-05-15T04:06:10.031Z,4.90
2019-05-15T04:08:39.094Z,4.90
2019-05-15T04:11:08.891Z,5.00
2019-05-15T04:13:35.535Z,5.10
2019-05-15T04:16:03.135Z,5.10
2019-05-15T04:18:30.678Z,5.10
2019-05-15T04:21:00.246Z,5.10
2019-05-15T04:23:30.147Z,5.10
2019-05-15T04:25:58.847Z,5.10
2019-05-15T04:28:29.434Z,5.40
2019-05-15T04:30:59.608Z,5.20
2019-05-15T04:33:29.422Z,5.20
2019-05-15T04:35:58.753Z,5.20
2019-05-15T04:38:25.259Z,5.20
2019-05-15T04:40:52.826Z,5.30
2019-05-15T04:43:20.368Z,5.30
2019-05-15T04:45:49.746Z,5.40
2019-05-15T04:48:20.079Z,5.40
2019-05-15T04:50:49.458Z,5.50
2019-05-15T04:53:19.066Z,5.60
2019-05-15T04:55:45.497Z,5.60
2019-05-15T04:58:13.255Z,5.70
2019-05-15T05:00:51.635Z,5.70
2019-05-15T05:03:20.090Z,5.70
2019-05-15T05:05:49.929Z,5.80
2019-05-15T05:08:20.114Z,5.80
2019-05-15T05:10:48.819Z,5.90
2019-05-15T05:13:19.399Z,5.90
2019-05-15T05:15:45.714Z,6.00
2019-05-15T05:18:13.282Z,6.00
2019-05-15T05:20:40.829Z,6.00
2019-05-15T05:23:08.608Z,6.10
2019-05-15T05:25:38.675Z,6.10
2019-05-15T05:28:05.739Z,6.20
2019-05-15T05:30:33.341Z,6.20
2019-05-15T05:33:01.011Z,6.30
2019-05-15T05:35:28.773Z,6.30
2019-05-15T05:37:58.225Z,3.10
2019-05-15T05:40:25.707Z,6.30
2019-05-15T05:42:53.356Z,6.40
2019-05-15T05:45:21.129Z,6.40
2019-05-15T05:47:48.756Z,6.50
2019-05-15T05:50:33.514Z,6.50
2019-05-15T05:53:01.075Z,6.50
2019-05-15T05:55:28.793Z,6.60
2019-05-15T05:57:58.413Z,7.20
2019-05-15T06:00:34.275Z,6.80
2019-05-15T06:03:01.830Z,6.80
2019-05-15T06:05:29.422Z,6.90
2019-05-15T06:07:58.209Z,7.20
2019-05-15T06:10:25.824Z,7.00
2019-05-15T06:12:53.408Z,7.20
2019-05-15T06:15:21.044Z,7.90
2019-05-15T06:17:48.665Z,7.40
2019-05-15T06:20:18.439Z,7.50
2019-05-15T06:22:47.760Z,7.60
2019-05-15T06:25:15.151Z,7.60
2019-05-15T06:27:42.742Z,7.70
2019-05-15T06:30:18.501Z,7.80
2019-05-15T06:32:40.295Z,7.90
2019-05-15T06:35:08.786Z,8.00
2019-05-15T06:37:39.243Z,8.00
2019-05-15T06:40:08.282Z,8.20
2019-05-15T06:42:35.477Z,8.40
2019-05-15T06:45:03.309Z,8.60
2019-05-15T06:47:30.900Z,8.90
2019-05-15T06:49:58.661Z,9.10
2019-05-15T06:52:28.287Z,9.30
2019-05-15T06:54:55.616Z,9.60
2019-05-15T06:57:23.409Z,10.10
2019-05-15T06:59:50.998Z,10.30
2019-05-15T07:02:19.009Z,10.40
2019-05-15T07:04:48.660Z,10.30
2019-05-15T07:07:18.130Z,10.10
2019-05-15T07:09:45.370Z,10.00
2019-05-15T07:12:12.959Z,9.90
2019-05-15T07:14:40.522Z,9.90
2019-05-15T07:17:09.296Z,9.80
2019-05-15T07:19:39.241Z,9.80
2019-05-15T07:22:06.363Z,9.90
2019-05-15T07:24:33.958Z,10.00
2019-05-15T07:27:01.710Z,10.00
2019-05-15T07:29:29.328Z,10.10
2019-05-15T07:31:58.594Z,10.10
2019-05-15T07:34:28.206Z,10.30
2019-05-15T07:36:55.632Z,10.40
2019-05-15T07:39:23.207Z,10.40
2019-05-15T07:41:50.831Z,10.40
2019-05-15T07:44:18.989Z,10.50
2019-05-15T07:46:48.698Z,10.50
2019-05-15T07:49:17.993Z,10.40
2019-05-15T07:51:45.386Z,10.70
2019-05-15T07:54:12.960Z,10.90
2019-05-15T07:56:40.537Z,10.80
2019-05-15T07:59:08.189Z,10.70
2019-05-15T08:01:38.409Z,10.70
2019-05-15T08:04:22.614Z,10.80
2019-05-15T08:06:34.564Z,10.80
2019-05-15T08:09:03.024Z,11.00
2019-05-15T08:11:30.588Z,11.10
2019-05-15T08:13:58.353Z,11.90
2019-05-15T08:16:28.494Z,12.30
2019-05-15T08:18:57.711Z,12.50
2019-05-15T08:21:24.713Z,12.30
2019-05-15T08:23:52.451Z,12.00
2019-05-15T08:26:20.007Z,11.70
2019-05-15T08:28:48.693Z,11.50
2019-05-15T08:31:18.382Z,11.60
2019-05-15T08:33:48.034Z,11.50
2019-05-15T08:36:15.479Z,11.60
2019-05-15T08:38:43.199Z,11.60
2019-05-15T08:41:11.571Z,11.60
2019-05-15T08:43:39.304Z,11.60
2019-05-15T08:46:08.315Z,11.70
2019-05-15T08:48:38.153Z,11.70
2019-05-15T08:51:05.541Z,11.90
2019-05-15T08:53:33.107Z,11.90
2019-05-15T08:56:00.682Z,12.10
2019-05-15T08:58:29.029Z,12.00
2019-05-15T09:00:58.676Z,12.20
2019-05-15T09:03:28.473Z,12.10
2019-05-15T09:05:55.630Z,12.10
2019-05-15T09:08:23.256Z,12.00
2019-05-15T09:10:50.821Z,12.10
2019-05-15T09:13:19.067Z,12.00
2019-05-15T09:15:48.196Z,12.00
2019-05-15T09:18:16.620Z,12.00
2019-05-15T09:20:45.262Z,11.90
2019-05-15T09:23:12.825Z,12.00
2019-05-15T09:25:40.463Z,12.10
2019-05-15T09:28:08.659Z,12.10
2019-05-15T09:30:38.892Z,12.20
2019-05-15T09:33:08.041Z,12.40
2019-05-15T09:35:35.216Z,12.40
2019-05-15T09:38:02.800Z,12.60
2019-05-15T09:40:42.465Z,12.70
2019-05-15T09:42:59.710Z,12.70
2019-05-15T09:45:28.614Z,12.70
2019-05-15T09:47:58.633Z,12.90
2019-05-15T09:50:25.551Z,13.10
2019-05-15T09:52:53.124Z,13.20
2019-05-15T09:55:20.865Z,13.30
2019-05-15T09:57:49.195Z,13.50
2019-05-15T10:00:20.459Z,13.50
2019-05-15T10:02:48.545Z,14.00
2019-05-15T10:05:18.781Z,14.30
2019-05-15T10:07:46.234Z,14.50
2019-05-15T10:10:13.883Z,14.80
2019-05-15T10:12:41.690Z,14.80
2019-05-15T10:15:11.117Z,14.90
2019-05-15T10:17:38.955Z,15.20
2019-05-15T10:20:09.176Z,15.20
2019-05-15T10:22:36.846Z,15.20
2019-05-15T10:25:04.643Z,15.30
2019-05-15T10:27:32.227Z,15.00
2019-05-15T10:29:59.781Z,15.00
2019-05-15T10:32:29.001Z,15.50
2019-05-15T10:34:58.638Z,16.00
2019-05-15T10:37:28.464Z,16.50
2019-05-15T10:39:58.259Z,17.10
2019-05-15T10:42:25.102Z,17.70
2019-05-15T10:44:52.859Z,17.80
2019-05-15T10:47:20.398Z,16.70
2019-05-15T10:49:48.439Z,16.50
2019-05-15T10:52:18.061Z,16.40
2019-05-15T10:54:46.208Z,16.20
2019-05-15T10:57:13.811Z,15.70
2019-05-15T10:59:41.417Z,15.50
2019-05-15T11:02:09.273Z,15.50
2019-05-15T11:04:39.133Z,15.70
2019-05-15T11:07:06.330Z,15.50
2019-05-15T11:09:33.872Z,15.50
2019-05-15T11:12:01.430Z,15.50
2019-05-15T11:14:29.029Z,15.70
2019-05-15T11:16:58.810Z,15.50
2019-05-15T11:19:35.749Z,15.00
2019-05-15T11:21:55.367Z,14.80
2019-05-15T11:24:22.998Z,14.60
2019-05-15T11:26:50.537Z,14.80
2019-05-15T11:29:18.150Z,14.60
2019-05-15T11:31:48.584Z,14.60
2019-05-15T11:34:15.304Z,14.60
2019-05-15T11:36:42.865Z,14.80
2019-05-15T11:39:10.461Z,15.50
2019-05-15T11:41:38.657Z,15.50
2019-05-15T11:44:06.491Z,15.60
2019-05-15T11:46:34.088Z,15.60
2019-05-15T11:49:01.753Z,15.20
2019-05-15T11:51:29.343Z,15.10
2019-05-15T11:53:58.781Z,14.70
2019-05-15T11:56:29.346Z,14.50
2019-05-15T11:58:56.142Z,14.30
2019-05-15T12:01:23.903Z,14.00
2019-05-15T12:03:51.440Z,13.80
2019-05-15T12:06:22.762Z,13.80
2019-05-15T12:08:48.382Z,13.80
2019-05-15T12:11:32.116Z,13.90
2019-05-15T12:13:45.345Z,13.90
2019-05-15T12:16:12.895Z,13.90
2019-05-15T12:18:40.437Z,13.90
2019-05-15T12:21:08.032Z,14.00
2019-05-15T12:23:38.152Z,13.80
2019-05-15T12:26:04.998Z,13.80
2019-05-15T12:28:32.640Z,13.80
2019-05-15T12:31:00.180Z,13.80
2019-05-15T12:33:28.997Z,13.70
2019-05-15T12:35:56.935Z,13.70
2019-05-15T12:38:24.545Z,13.50
2019-05-15T13:00:48.907Z,13.30
2019-05-15T13:03:18.229Z,13.30
2019-05-15T13:05:48.389Z,13.40
2019-05-15T13:08:15.210Z,13.40
2019-05-15T13:10:42.785Z,13.30
2019-05-15T13:13:10.339Z,13.20
2019-05-15T13:15:40.919Z,13.00
2019-05-15T13:18:12.907Z,13.00
2019-05-15T13:20:38.391Z,12.90
2019-05-15T13:23:06.198Z,12.90
2019-05-15T13:25:33.794Z,13.00
2019-05-15T13:28:01.408Z,13.00
2019-05-15T13:30:30.189Z,13.20
2019-05-15T13:32:58.736Z,13.10
2019-05-15T13:35:28.418Z,13.10
2019-05-15T13:37:58.476Z,13.20
2019-05-15T13:40:34.954Z,13.30
2019-05-15T13:42:54.679Z,13.30
2019-05-15T13:45:22.564Z,13.30
2019-05-15T13:47:50.116Z,13.30
2019-05-15T13:50:19.501Z,13.40
2019-05-15T13:52:48.176Z,13.20
2019-05-15T13:55:16.157Z,13.30
2019-05-15T13:57:43.819Z,13.20
2019-05-15T14:00:11.555Z,13.10
2019-05-15T14:02:39.323Z,13.00
2019-05-15T14:05:09.382Z,12.90
2019-05-15T14:07:47.964Z,13.10
2019-05-15T14:10:09.236Z,13.10
2019-05-15T14:12:38.205Z,13.10
2019-05-15T14:15:05.733Z,12.90
2019-05-15T14:17:33.350Z,13.00
2019-05-15T14:20:00.999Z,13.00
2019-05-15T14:22:28.610Z,12.80
2019-05-15T14:24:58.294Z,12.80
2019-05-15T14:27:25.641Z,12.80
2019-05-15T14:29:53.264Z,12.60
2019-05-15T14:32:34.342Z,12.60
2019-05-15T14:34:51.105Z,12.50
2019-05-15T14:37:19.100Z,12.60
2019-05-15T14:39:52.022Z,12.60
2019-05-15T14:42:18.685Z,12.50
2019-05-15T14:44:45.532Z,12.50
2019-05-15T14:47:13.185Z,12.50
2019-05-15T14:49:44.603Z,12.30
2019-05-15T14:52:10.179Z,12.20
2019-05-15T14:54:38.466Z,12.10
2019-05-15T14:57:06.188Z,12.10
2019-05-15T14:59:33.811Z,12.20
2019-05-15T15:02:01.610Z,12.10
2019-05-15T15:04:29.360Z,12.10
2019-05-15T15:06:57.996Z,12.10
2019-05-15T15:09:25.708Z,12.10
2019-05-15T15:11:53.825Z,12.00
2019-05-15T15:14:21.686Z,12.10
2019-05-15T15:16:49.281Z,11.90
2019-05-15T15:19:18.485Z,11.80
2019-05-15T15:21:48.516Z,11.70
2019-05-15T15:24:15.728Z,11.60
2019-05-15T15:26:43.528Z,11.50
2019-05-15T15:29:11.201Z,11.40
2019-05-15T15:31:39.148Z,11.30
2019-05-15T15:34:08.625Z,11.30
2019-05-15T15:36:37.988Z,11.20
2019-05-15T15:39:08.106Z,11.20
2019-05-15T15:41:35.346Z,11.00
2019-05-15T15:44:02.935Z,11.00
2019-05-15T15:46:30.523Z,11.10
2019-05-15T15:48:59.253Z,10.90
2019-05-15T15:51:28.570Z,10.90
2019-05-15T15:53:56.337Z,10.80
2019-05-15T15:56:23.914Z,10.90
2019-05-15T15:58:51.531Z,10.80
2019-05-15T16:01:19.149Z,10.80
2019-05-15T16:03:48.409Z,10.80
2019-05-15T16:06:16.434Z,10.80
2019-05-15T16:08:53.005Z,10.70
2019-05-15T16:11:14.893Z,10.60
2019-05-15T16:13:42.518Z,10.50
2019-05-15T16:16:10.114Z,10.50
2019-05-15T16:18:38.318Z,10.50
2019-05-15T16:21:08.194Z,10.40
2019-05-15T16:23:35.565Z,10.40
2019-05-15T16:26:03.129Z,10.40
2019-05-15T16:28:30.694Z,10.40
2019-05-15T16:30:58.725Z,10.30
2019-05-15T16:33:28.367Z,10.40
2019-05-15T16:35:57.966Z,10.30
2019-05-15T16:38:25.350Z,10.30
2019-05-15T16:40:53.317Z,10.30
2019-05-15T16:43:20.945Z,10.30
2019-05-15T16:45:51.625Z,10.20
2019-05-15T16:48:18.670Z,10.10
2019-05-15T16:50:48.567Z,10.10
2019-05-15T16:53:17.838Z,10.20
2019-05-15T16:55:47.897Z,10.20
2019-05-15T16:58:14.872Z,10.20
2019-05-15T17:00:42.977Z,10.30
2019-05-15T17:03:14.911Z,10.20
2019-05-15T17:05:39.951Z,10.20
2019-05-15T17:08:09.131Z,10.20
2019-05-15T17:10:38.755Z,10.20
2019-05-15T17:13:08.740Z,10.10
2019-05-15T17:15:38.473Z,10.10
2019-05-15T17:18:05.970Z,10.00
2019-05-15T17:20:33.598Z,10.00
2019-05-15T17:23:01.199Z,9.90
2019-05-15T17:25:28.824Z,9.80
2019-05-15T17:27:58.034Z,9.70
2019-05-15T17:30:25.804Z,9.70
2019-05-15T17:32:53.381Z,9.60
2019-05-15T17:35:20.978Z,9.60
2019-05-15T17:37:48.791Z,9.60
2019-05-15T17:40:17.787Z,9.60
2019-05-15T17:42:45.580Z,9.50
2019-05-15T17:45:13.464Z,9.50
2019-05-15T17:47:41.070Z,9.50
2019-05-15T17:50:10.165Z,9.40
2019-05-15T17:52:38.784Z,9.40
2019-05-15T17:55:06.998Z,9.30
2019-05-15T17:57:34.585Z,9.30
2019-05-15T18:00:02.267Z,9.30
2019-05-15T18:02:29.853Z,9.20
2019-05-15T18:04:58.769Z,9.20
2019-05-15T18:07:28.157Z,9.20
2019-05-15T18:09:55.938Z,9.20
2019-05-15T18:12:23.507Z,9.10
2019-05-15T18:14:51.110Z,9.00
2019-05-15T18:17:18.828Z,9.00
2019-05-15T18:19:48.559Z,9.00
2019-05-15T18:22:18.008Z,8.90
2019-05-15T18:24:45.343Z,8.90
2019-05-15T18:27:12.974Z,8.90
2019-05-15T18:29:40.754Z,8.90
2019-05-15T18:32:08.702Z,8.80
2019-05-15T18:34:36.386Z,9.10
2019-05-15T18:37:03.997Z,8.80
2019-05-15T18:39:31.581Z,8.80
2019-05-15T18:41:59.237Z,8.90
2019-05-15T18:44:28.339Z,8.90
2019-05-15T18:46:58.072Z,8.80
2019-05-15T18:49:28.484Z,8.80
2019-05-15T18:51:54.825Z,8.70
2019-05-15T18:54:22.758Z,8.70
2019-05-15T18:56:50.346Z,8.70
2019-05-15T18:59:17.942Z,8.60
2019-05-15T19:01:47.881Z,8.60
2019-05-15T19:04:15.430Z,8.50
2019-05-15T19:06:42.985Z,8.60
2019-05-15T19:09:10.620Z,8.50
2019-05-15T19:11:38.993Z,8.60
2019-05-15T19:14:08.337Z,8.50
2019-05-15T19:16:38.705Z,8.50
2019-05-15T19:19:07.675Z,8.50
2019-05-15T19:21:35.161Z,8.50
2019-05-15T19:24:02.738Z,8.40
2019-05-15T19:26:30.351Z,8.40
2019-05-15T19:28:59.141Z,8.40
2019-05-15T19:31:30.510Z,8.40
2019-05-15T19:33:56.662Z,8.30
2019-05-15T19:36:24.265Z,8.30
2019-05-15T19:38:51.919Z,8.30
2019-05-15T19:41:19.504Z,8.20
2019-05-15T19:43:48.734Z,8.20
2019-05-15T19:46:16.478Z,8.10
2019-05-15T19:48:44.072Z,8.10
2019-05-15T19:51:11.671Z,8.10
2019-05-15T19:53:39.745Z,8.00
2019-05-15T19:56:08.418Z,8.00
2019-05-15T19:58:36.238Z,8.00
2019-05-15T20:01:04.049Z,7.90
2019-05-15T20:03:31.656Z,7.90
2019-05-15T20:06:01.658Z,7.90
2019-05-15T20:08:28.924Z,7.90
2019-05-15T20:10:59.124Z,7.80
2019-05-15T20:13:29.015Z,7.90
2019-05-15T20:15:57.990Z,7.80
2019-05-15T20:18:27.710Z,7.80
2019-05-15T20:20:55.170Z,7.70
2019-05-15T20:23:22.782Z,7.70
2019-05-15T20:25:50.379Z,7.70
2019-05-15T20:28:19.118Z,7.60
2019-05-15T20:30:48.161Z,7.60
2019-05-15T20:33:17.867Z,7.60
2019-05-15T20:35:47.832Z,7.50
2019-05-15T20:38:14.723Z,7.40
2019-05-15T20:40:42.330Z,7.30
2019-05-15T20:43:09.940Z,7.30
2019-05-15T20:45:37.621Z,7.20
2019-05-15T20:48:05.168Z,7.20
2019-05-15T20:50:33.123Z,7.20
2019-05-15T20:53:00.667Z,7.10
2019-05-15T20:55:28.197Z,7.10
2019-05-15T20:57:56.007Z,7.00
2019-05-15T21:00:23.649Z,7.00
2019-05-15T21:02:51.229Z,7.00
2019-05-15T21:05:19.052Z,7.00
2019-05-15T21:07:48.567Z,6.90
2019-05-15T21:10:19.961Z,6.90
2019-05-15T21:12:48.387Z,6.90
2019-05-15T21:15:15.258Z,6.90
2019-05-15T21:17:43.947Z,6.80
2019-05-15T21:20:12.272Z,6.80
2019-05-15T21:22:40.493Z,6.80
2019-05-15T21:25:10.748Z,6.80
2019-05-15T21:27:42.459Z,6.80
2019-05-15T21:30:08.990Z,6.80
2019-05-15T21:32:38.300Z,6.80
2019-05-15T21:35:08.772Z,6.80
2019-05-15T21:37:38.251Z,6.80
2019-05-15T21:40:08.202Z,6.70
2019-05-15T21:42:39.020Z,6.70
2019-05-15T21:45:05.874Z,6.70
2019-05-15T21:47:33.404Z,6.60
2019-05-15T21:50:00.930Z,6.60
2019-05-15T21:52:29.360Z,6.60
2019-05-15T21:55:00.271Z,6.60
2019-05-15T21:57:34.081Z,6.60
2019-05-15T21:59:57.778Z,6.60
2019-05-15T22:02:25.087Z,6.60
2019-05-15T22:04:55.959Z,6.60
2019-05-15T22:07:22.064Z,6.70
2019-05-15T22:09:49.659Z,6.60
2019-05-15T22:12:18.412Z,6.60
2019-05-15T22:14:48.717Z,6.60
2019-05-15T22:17:18.683Z,6.60
2019-05-15T22:19:45.082Z,6.70
2019-05-15T22:22:12.726Z,6.70
2019-05-15T22:24:40.353Z,6.70
2019-05-15T22:27:09.597Z,6.70
2019-05-15T22:29:37.965Z,6.70
2019-05-15T22:32:08.034Z,6.60
2019-05-15T22:34:35.042Z,6.60
2019-05-15T22:37:02.611Z,6.60
2019-05-15T22:39:30.155Z,6.60
2019-05-15T22:41:57.808Z,6.60
2019-05-15T22:44:27.992Z,6.60
2019-05-15T22:46:54.748Z,6.60
2019-05-15T22:49:22.329Z,6.60
2019-05-15T22:51:49.893Z,6.60
2019-05-15T22:54:20.318Z,6.60
2019-05-15T22:56:48.254Z,6.50
2019-05-15T22:59:16.209Z,6.60
2019-05-15T23:01:43.845Z,6.60
2019-05-15T23:04:11.488Z,6.50
2019-05-15T23:06:39.078Z,6.50
2019-05-15T23:09:06.733Z,6.50
2019-05-15T23:11:34.266Z,6.50
2019-05-15T23:14:01.898Z,6.50
2019-05-15T23:16:29.440Z,6.50
2019-05-15T23:18:58.806Z,6.50
2019-05-15T23:21:28.650Z,6.50
2019-05-15T23:23:55.888Z,6.50
2019-05-15T23:26:23.486Z,6.50
2019-05-15T23:28:51.029Z,6.50
2019-05-15T23:31:19.006Z,6.50
2019-05-15T23:33:48.183Z,6.40
2019-05-15T23:36:17.904Z,6.50
2019-05-15T23:38:45.289Z,6.50
2019-05-15T23:41:12.821Z,6.50
2019-05-15T23:43:40.384Z,6.40
2019-05-15T23:46:08.115Z,6.40
2019-05-15T23:48:37.711Z,6.50
2019-05-15T23:51:05.062Z,6.50
2019-05-15T23:53:32.598Z,6.50
2019-05-15T23:56:00.153Z,6.50
2019-05-15T23:58:29.195Z,6.50
